sensor_id;sensor_type;location;lat;lon;timestamp;temperature;humidity
19561;DHT22;9927;47.792;10.616;2023-07-29T00:00:58;17.90;99.90
19561;DHT22;9927;47.792;10.616;2023-07-29T00:03:27;17.80;99.90
19561;DHT22;9927;47.792;10.616;2023-07-29T00:05:57;17.70;99.90
19561;DHT22;9927;47.792;10.616;2023-07-29T00:08:24;17.60;99.90
19561;DHT22;9927;47.792;10.616;2023-07-29T00:10:51;17.40;99.90
19561;DHT22;9927;47.792;10.616;2023-07-29T00:13:19;17.30;99.90
19561;DHT22;9927;47.792;10.616;2023-07-29T00:15:48;17.30;99.90
19561;DHT22;9927;47.792;10.616;2023-07-29T00:18:15;17.20;99.90
19561;DHT22;9927;47.792;10.616;2023-07-29T00:20:43;17.20;99.90
19561;DHT22;9927;47.792;10.616;2023-07-29T00:23:10;17.10;99.90
19561;DHT22;9927;47.792;10.616;2023-07-29T00:25:37;17.00;99.90
19561;DHT22;9927;47.792;10.616;2023-07-29T00:28:04;17.00;99.90
19561;DHT22;9927;47.792;10.616;2023-07-29T00:30:32;17.00;99.90
19561;DHT22;9927;47.792;10.616;2023-07-29T00:32:59;16.90;99.90
19561;DHT22;9927;47.792;10.616;2023-07-29T00:35:26;17.00;99.90
19561;DHT22;9927;47.792;10.616;2023-07-29T00:37:53;17.00;99.90
19561;DHT22;9927;47.792;10.616;2023-07-29T00:40:22;17.00;99.90
19561;DHT22;9927;47.792;10.616;2023-07-29T00:42:50;17.00;99.90
19561;DHT22;9927;47.792;10.616;2023-07-29T00:45:20;16.90;99.90
19561;DHT22;9927;47.792;10.616;2023-07-29T00:47:47;16.90;99.90
19561;DHT22;9927;47.792;10.616;2023-07-29T00:50:15;16.90;99.90
19561;DHT22;9927;47.792;10.616;2023-07-29T00:52:43;17.00;99.90
19561;DHT22;9927;47.792;10.616;2023-07-29T00:55:10;16.90;99.90
19561;DHT22;9927;47.792;10.616;2023-07-29T00:57:38;16.90;99.90
19561;DHT22;9927;47.792;10.616;2023-07-29T01:00:06;16.70;99.90
19561;DHT22;9927;47.792;10.616;2023-07-29T01:02:35;16.70;99.90
19561;DHT22;9927;47.792;10.616;2023-07-29T01:05:03;16.80;99.90
19561;DHT22;9927;47.792;10.616;2023-07-29T01:07:59;16.90;99.90
19561;DHT22;9927;47.792;10.616;2023-07-29T01:13:06;16.90;99.90
19561;DHT22;9927;47.792;10.616;2023-07-29T01:18:22;17.10;99.90
19561;DHT22;9927;47.792;10.616;2023-07-29T01:20:53;17.10;99.90
19561;DHT22;9927;47.792;10.616;2023-07-29T01:23:25;17.10;99.90
19561;DHT22;9927;47.792;10.616;2023-07-29T01:25:52;17.10;99.90
19561;DHT22;9927;47.792;10.616;2023-07-29T01:28:19;17.20;99.90
19561;DHT22;9927;47.792;10.616;2023-07-29T01:30:49;17.20;99.90
19561;DHT22;9927;47.792;10.616;2023-07-29T01:33:22;17.20;99.90
19561;DHT22;9927;47.792;10.616;2023-07-29T01:35:58;17.20;99.90
19561;DHT22;9927;47.792;10.616;2023-07-29T01:38:29;17.20;99.90
19561;DHT22;9927;47.792;10.616;2023-07-29T01:41:02;17.10;99.90
19561;DHT22;9927;47.792;10.616;2023-07-29T01:43:31;17.10;99.90
19561;DHT22;9927;47.792;10.616;2023-07-29T01:45:58;17.20;99.90
19561;DHT22;9927;47.792;10.616;2023-07-29T01:48:27;17.20;99.90
19561;DHT22;9927;47.792;10.616;2023-07-29T01:50:57;17.30;99.90
19561;DHT22;9927;47.792;10.616;2023-07-29T01:53:24;17.30;99.90
19561;DHT22;9927;47.792;10.616;2023-07-29T01:55:52;17.30;99.90
19561;DHT22;9927;47.792;10.616;2023-07-29T01:58:19;17.30;99.90
19561;DHT22;9927;47.792;10.616;2023-07-29T02:00:46;17.30;99.90
19561;DHT22;9927;47.792;10.616;2023-07-29T02:03:13;17.20;99.90
19561;DHT22;9927;47.792;10.616;2023-07-29T02:05:41;17.20;99.90
19561;DHT22;9927;47.792;10.616;2023-07-29T02:08:11;17.30;99.90
19561;DHT22;9927;47.792;10.616;2023-07-29T02:10:38;17.30;99.90
19561;DHT22;9927;47.792;10.616;2023-07-29T02:13:05;17.40;99.90
19561;DHT22;9927;47.792;10.616;2023-07-29T02:15:33;17.40;99.90
19561;DHT22;9927;47.792;10.616;2023-07-29T02:18:00;17.40;99.90
19561;DHT22;9927;47.792;10.616;2023-07-29T02:20:29;17.40;99.90
19561;DHT22;9927;47.792;10.616;2023-07-29T02:22:56;17.40;99.90
19561;DHT22;9927;47.792;10.616;2023-07-29T02:25:23;17.50;99.90
19561;DHT22;9927;47.792;10.616;2023-07-29T02:27:50;17.50;99.90
19561;DHT22;9927;47.792;10.616;2023-07-29T02:30:18;17.50;99.90
19561;DHT22;9927;47.792;10.616;2023-07-29T02:32:45;17.40;99.90
19561;DHT22;9927;47.792;10.616;2023-07-29T02:35:12;17.50;99.90
19561;DHT22;9927;47.792;10.616;2023-07-29T02:37:39;17.50;99.90
19561;DHT22;9927;47.792;10.616;2023-07-29T02:40:07;17.50;99.90
19561;DHT22;9927;47.792;10.616;2023-07-29T02:42:34;17.50;99.90
19561;DHT22;9927;47.792;10.616;2023-07-29T02:45:02;17.50;99.90
19561;DHT22;9927;47.792;10.616;2023-07-29T02:47:29;17.50;99.90
19561;DHT22;9927;47.792;10.616;2023-07-29T02:49:56;17.40;99.90
19561;DHT22;9927;47.792;10.616;2023-07-29T02:52:24;17.50;99.90
19561;DHT22;9927;47.792;10.616;2023-07-29T02:54:51;17.50;99.90
19561;DHT22;9927;47.792;10.616;2023-07-29T02:57:18;17.40;99.90
19561;DHT22;9927;47.792;10.616;2023-07-29T02:59:45;17.40;99.90
19561;DHT22;9927;47.792;10.616;2023-07-29T03:02:13;17.40;99.90
19561;DHT22;9927;47.792;10.616;2023-07-29T03:04:41;17.30;99.90
19561;DHT22;9927;47.792;10.616;2023-07-29T03:07:08;17.30;99.90
19561;DHT22;9927;47.792;10.616;2023-07-29T03:09:36;17.30;99.90
19561;DHT22;9927;47.792;10.616;2023-07-29T03:12:03;17.20;99.90
19561;DHT22;9927;47.792;10.616;2023-07-29T03:14:31;17.20;99.90
19561;DHT22;9927;47.792;10.616;2023-07-29T03:17:02;17.20;99.90
19561;DHT22;9927;47.792;10.616;2023-07-29T03:19:31;17.20;99.90
19561;DHT22;9927;47.792;10.616;2023-07-29T03:21:58;17.20;99.90
19561;DHT22;9927;47.792;10.616;2023-07-29T03:24:25;17.20;99.90
19561;DHT22;9927;47.792;10.616;2023-07-29T03:26:53;17.10;99.90
19561;DHT22;9927;47.792;10.616;2023-07-29T03:29:20;17.10;99.90
19561;DHT22;9927;47.792;10.616;2023-07-29T03:31:47;16.90;99.90
19561;DHT22;9927;47.792;10.616;2023-07-29T03:34:14;16.90;99.90
19561;DHT22;9927;47.792;10.616;2023-07-29T03:36:41;16.90;99.90
19561;DHT22;9927;47.792;10.616;2023-07-29T03:39:09;16.80;99.90
19561;DHT22;9927;47.792;10.616;2023-07-29T03:41:36;16.80;99.90
19561;DHT22;9927;47.792;10.616;2023-07-29T03:44:03;16.90;99.90
19561;DHT22;9927;47.792;10.616;2023-07-29T03:46:31;16.80;99.90
19561;DHT22;9927;47.792;10.616;2023-07-29T03:48:58;16.90;99.90
19561;DHT22;9927;47.792;10.616;2023-07-29T03:51:26;16.90;99.90
19561;DHT22;9927;47.792;10.616;2023-07-29T03:53:53;16.90;99.90
19561;DHT22;9927;47.792;10.616;2023-07-29T03:56:20;16.90;99.90
19561;DHT22;9927;47.792;10.616;2023-07-29T03:58:47;16.90;99.90
19561;DHT22;9927;47.792;10.616;2023-07-29T04:01:16;17.00;99.90
19561;DHT22;9927;47.792;10.616;2023-07-29T04:03:45;17.00;99.90
19561;DHT22;9927;47.792;10.616;2023-07-29T04:06:13;17.00;99.90
19561;DHT22;9927;47.792;10.616;2023-07-29T04:08:40;17.10;99.90
19561;DHT22;9927;47.792;10.616;2023-07-29T04:11:08;17.20;99.90
19561;DHT22;9927;47.792;10.616;2023-07-29T04:13:36;17.20;99.90
19561;DHT22;9927;47.792;10.616;2023-07-29T04:16:05;17.20;99.90
19561;DHT22;9927;47.792;10.616;2023-07-29T04:18:32;17.30;99.90
19561;DHT22;9927;47.792;10.616;2023-07-29T04:21:00;17.40;99.90
19561;DHT22;9927;47.792;10.616;2023-07-29T04:23:27;17.40;99.90
19561;DHT22;9927;47.792;10.616;2023-07-29T04:25:54;17.30;99.90
19561;DHT22;9927;47.792;10.616;2023-07-29T04:28:21;17.50;99.90
19561;DHT22;9927;47.792;10.616;2023-07-29T04:30:48;17.70;99.90
19561;DHT22;9927;47.792;10.616;2023-07-29T04:33:16;17.80;99.90
19561;DHT22;9927;47.792;10.616;2023-07-29T04:35:43;17.40;99.90
19561;DHT22;9927;47.792;10.616;2023-07-29T04:38:11;17.40;99.90
19561;DHT22;9927;47.792;10.616;2023-07-29T04:40:38;17.40;99.90
19561;DHT22;9927;47.792;10.616;2023-07-29T04:43:05;17.60;99.90
19561;DHT22;9927;47.792;10.616;2023-07-29T04:45:32;17.50;99.90
19561;DHT22;9927;47.792;10.616;2023-07-29T04:48:00;17.40;99.90
19561;DHT22;9927;47.792;10.616;2023-07-29T04:50:27;17.50;99.90
19561;DHT22;9927;47.792;10.616;2023-07-29T04:52:54;17.60;99.90
19561;DHT22;9927;47.792;10.616;2023-07-29T04:55:21;17.60;99.90
19561;DHT22;9927;47.792;10.616;2023-07-29T04:57:49;17.60;99.90
19561;DHT22;9927;47.792;10.616;2023-07-29T05:00:16;17.60;99.90
19561;DHT22;9927;47.792;10.616;2023-07-29T05:02:43;17.60;99.90
19561;DHT22;9927;47.792;10.616;2023-07-29T05:05:10;17.70;99.90
19561;DHT22;9927;47.792;10.616;2023-07-29T05:07:38;17.70;99.90
19561;DHT22;9927;47.792;10.616;2023-07-29T05:10:05;17.70;99.90
19561;DHT22;9927;47.792;10.616;2023-07-29T05:12:33;17.70;99.90
19561;DHT22;9927;47.792;10.616;2023-07-29T05:15:00;17.80;99.90
19561;DHT22;9927;47.792;10.616;2023-07-29T05:17:27;17.80;99.90
19561;DHT22;9927;47.792;10.616;2023-07-29T05:19:55;17.90;99.90
19561;DHT22;9927;47.792;10.616;2023-07-29T05:22:22;17.90;99.90
19561;DHT22;9927;47.792;10.616;2023-07-29T05:24:49;17.90;99.90
19561;DHT22;9927;47.792;10.616;2023-07-29T05:27:17;17.90;99.90
19561;DHT22;9927;47.792;10.616;2023-07-29T05:29:44;17.90;99.90
19561;DHT22;9927;47.792;10.616;2023-07-29T05:32:11;18.00;99.90
19561;DHT22;9927;47.792;10.616;2023-07-29T05:34:38;18.00;99.90
19561;DHT22;9927;47.792;10.616;2023-07-29T05:37:06;18.00;99.90
19561;DHT22;9927;47.792;10.616;2023-07-29T05:39:33;18.00;99.90
19561;DHT22;9927;47.792;10.616;2023-07-29T05:42:00;18.00;99.90
19561;DHT22;9927;47.792;10.616;2023-07-29T05:44:29;18.00;99.90
19561;DHT22;9927;47.792;10.616;2023-07-29T05:47:00;18.10;99.90
19561;DHT22;9927;47.792;10.616;2023-07-29T05:49:27;18.10;99.90
19561;DHT22;9927;47.792;10.616;2023-07-29T05:51:54;18.00;99.90
19561;DHT22;9927;47.792;10.616;2023-07-29T05:54:22;18.00;99.90
19561;DHT22;9927;47.792;10.616;2023-07-29T05:56:49;17.90;99.90
19561;DHT22;9927;47.792;10.616;2023-07-29T05:59:16;18.00;99.90
19561;DHT22;9927;47.792;10.616;2023-07-29T06:01:43;18.10;99.90
19561;DHT22;9927;47.792;10.616;2023-07-29T06:04:11;18.10;99.90
19561;DHT22;9927;47.792;10.616;2023-07-29T06:06:38;18.20;99.90
19561;DHT22;9927;47.792;10.616;2023-07-29T06:09:05;18.30;99.90
19561;DHT22;9927;47.792;10.616;2023-07-29T06:11:33;18.20;99.90
19561;DHT22;9927;47.792;10.616;2023-07-29T06:14:00;18.20;99.90
19561;DHT22;9927;47.792;10.616;2023-07-29T06:16:27;18.20;99.90
19561;DHT22;9927;47.792;10.616;2023-07-29T06:18:54;18.20;99.90
19561;DHT22;9927;47.792;10.616;2023-07-29T06:21:21;18.20;99.90
19561;DHT22;9927;47.792;10.616;2023-07-29T06:23:49;18.30;99.90
19561;DHT22;9927;47.792;10.616;2023-07-29T06:26:16;18.40;99.90
19561;DHT22;9927;47.792;10.616;2023-07-29T06:28:43;18.50;99.90
19561;DHT22;9927;47.792;10.616;2023-07-29T06:31:11;18.60;99.90
19561;DHT22;9927;47.792;10.616;2023-07-29T06:33:38;18.70;99.90
19561;DHT22;9927;47.792;10.616;2023-07-29T06:36:05;18.80;99.90
19561;DHT22;9927;47.792;10.616;2023-07-29T06:38:32;18.90;99.90
19561;DHT22;9927;47.792;10.616;2023-07-29T06:41:00;19.00;99.90
19561;DHT22;9927;47.792;10.616;2023-07-29T06:43:27;19.20;99.90
19561;DHT22;9927;47.792;10.616;2023-07-29T06:45:54;19.40;99.90
19561;DHT22;9927;47.792;10.616;2023-07-29T06:48:22;19.60;99.90
19561;DHT22;9927;47.792;10.616;2023-07-29T06:50:50;19.70;99.90
19561;DHT22;9927;47.792;10.616;2023-07-29T06:53:17;19.90;99.90
19561;DHT22;9927;47.792;10.616;2023-07-29T06:55:45;20.20;99.90
19561;DHT22;9927;47.792;10.616;2023-07-29T06:58:12;20.50;99.90
19561;DHT22;9927;47.792;10.616;2023-07-29T07:00:39;20.60;99.90
19561;DHT22;9927;47.792;10.616;2023-07-29T07:03:06;21.10;99.90
19561;DHT22;9927;47.792;10.616;2023-07-29T07:05:34;21.80;99.90
19561;DHT22;9927;47.792;10.616;2023-07-29T07:08:01;22.70;99.90
19561;DHT22;9927;47.792;10.616;2023-07-29T07:10:29;23.00;99.90
19561;DHT22;9927;47.792;10.616;2023-07-29T07:12:56;23.20;99.90
19561;DHT22;9927;47.792;10.616;2023-07-29T07:15:23;23.30;99.90
19561;DHT22;9927;47.792;10.616;2023-07-29T07:17:51;23.30;99.90
19561;DHT22;9927;47.792;10.616;2023-07-29T07:20:18;23.20;99.90
19561;DHT22;9927;47.792;10.616;2023-07-29T07:22:46;23.20;99.90
19561;DHT22;9927;47.792;10.616;2023-07-29T07:25:13;23.40;99.90
19561;DHT22;9927;47.792;10.616;2023-07-29T07:27:40;23.50;99.90
19561;DHT22;9927;47.792;10.616;2023-07-29T07:30:08;23.40;99.90
19561;DHT22;9927;47.792;10.616;2023-07-29T07:32:35;23.40;99.90
19561;DHT22;9927;47.792;10.616;2023-07-29T07:35:03;23.30;99.90
19561;DHT22;9927;47.792;10.616;2023-07-29T07:37:31;23.00;99.90
19561;DHT22;9927;47.792;10.616;2023-07-29T07:39:58;22.90;99.90
19561;DHT22;9927;47.792;10.616;2023-07-29T07:42:25;22.80;99.90
19561;DHT22;9927;47.792;10.616;2023-07-29T07:44:53;22.90;99.90
19561;DHT22;9927;47.792;10.616;2023-07-29T07:47:20;23.00;99.90
19561;DHT22;9927;47.792;10.616;2023-07-29T07:49:47;23.20;99.90
19561;DHT22;9927;47.792;10.616;2023-07-29T07:52:16;23.30;99.90
19561;DHT22;9927;47.792;10.616;2023-07-29T07:54:43;23.60;99.90
19561;DHT22;9927;47.792;10.616;2023-07-29T07:57:11;23.70;99.90
19561;DHT22;9927;47.792;10.616;2023-07-29T07:59:38;23.60;99.90
19561;DHT22;9927;47.792;10.616;2023-07-29T08:02:05;23.50;99.90
19561;DHT22;9927;47.792;10.616;2023-07-29T08:04:32;23.80;99.90
19561;DHT22;9927;47.792;10.616;2023-07-29T08:07:00;23.70;99.90
19561;DHT22;9927;47.792;10.616;2023-07-29T08:09:27;23.40;99.90
19561;DHT22;9927;47.792;10.616;2023-07-29T08:11:54;23.20;99.90
19561;DHT22;9927;47.792;10.616;2023-07-29T08:14:21;23.30;99.90
19561;DHT22;9927;47.792;10.616;2023-07-29T08:16:48;23.50;99.90
19561;DHT22;9927;47.792;10.616;2023-07-29T08:19:16;23.40;99.90
19561;DHT22;9927;47.792;10.616;2023-07-29T08:21:43;23.50;99.90
19561;DHT22;9927;47.792;10.616;2023-07-29T08:24:10;23.60;99.90
19561;DHT22;9927;47.792;10.616;2023-07-29T08:26:37;23.80;99.90
19561;DHT22;9927;47.792;10.616;2023-07-29T08:29:05;24.10;99.90
19561;DHT22;9927;47.792;10.616;2023-07-29T08:31:32;24.30;99.90
19561;DHT22;9927;47.792;10.616;2023-07-29T08:34:01;25.00;99.90
19561;DHT22;9927;47.792;10.616;2023-07-29T08:36:28;25.60;99.90
19561;DHT22;9927;47.792;10.616;2023-07-29T08:38:55;25.50;99.90
19561;DHT22;9927;47.792;10.616;2023-07-29T08:41:31;26.30;99.90
19561;DHT22;9927;47.792;10.616;2023-07-29T08:44:12;26.70;99.90
19561;DHT22;9927;47.792;10.616;2023-07-29T08:46:43;27.20;99.90
19561;DHT22;9927;47.792;10.616;2023-07-29T08:49:12;27.70;99.90
19561;DHT22;9927;47.792;10.616;2023-07-29T08:51:44;28.00;99.90
19561;DHT22;9927;47.792;10.616;2023-07-29T08:54:13;27.90;99.90
19561;DHT22;9927;47.792;10.616;2023-07-29T08:56:41;27.40;99.90
19561;DHT22;9927;47.792;10.616;2023-07-29T08:59:10;27.20;99.90
19561;DHT22;9927;47.792;10.616;2023-07-29T09:01:38;26.70;99.90
19561;DHT22;9927;47.792;10.616;2023-07-29T09:04:06;27.00;99.90
19561;DHT22;9927;47.792;10.616;2023-07-29T09:06:35;27.10;99.90
19561;DHT22;9927;47.792;10.616;2023-07-29T09:09:03;27.10;99.90
19561;DHT22;9927;47.792;10.616;2023-07-29T09:11:30;27.10;99.90
19561;DHT22;9927;47.792;10.616;2023-07-29T09:13:58;27.20;99.90
19561;DHT22;9927;47.792;10.616;2023-07-29T09:16:25;27.40;99.90
19561;DHT22;9927;47.792;10.616;2023-07-29T09:18:53;27.20;99.90
19561;DHT22;9927;47.792;10.616;2023-07-29T09:21:25;27.70;99.90
19561;DHT22;9927;47.792;10.616;2023-07-29T09:23:54;27.60;99.90
19561;DHT22;9927;47.792;10.616;2023-07-29T09:26:26;27.70;99.90
19561;DHT22;9927;47.792;10.616;2023-07-29T09:28:55;27.70;99.90
19561;DHT22;9927;47.792;10.616;2023-07-29T09:31:24;27.80;99.90
19561;DHT22;9927;47.792;10.616;2023-07-29T09:34:02;27.80;99.90
19561;DHT22;9927;47.792;10.616;2023-07-29T09:36:31;27.60;99.90
19561;DHT22;9927;47.792;10.616;2023-07-29T09:38:59;27.60;99.90
19561;DHT22;9927;47.792;10.616;2023-07-29T09:41:28;27.50;99.90
19561;DHT22;9927;47.792;10.616;2023-07-29T09:43:57;27.30;99.90
19561;DHT22;9927;47.792;10.616;2023-07-29T09:46:26;27.40;99.90
19561;DHT22;9927;47.792;10.616;2023-07-29T09:48:59;27.20;99.90
19561;DHT22;9927;47.792;10.616;2023-07-29T09:51:26;26.90;99.90
19561;DHT22;9927;47.792;10.616;2023-07-29T09:53:53;26.80;99.90
19561;DHT22;9927;47.792;10.616;2023-07-29T09:56:26;26.80;99.90
19561;DHT22;9927;47.792;10.616;2023-07-29T09:58:56;26.90;99.90
19561;DHT22;9927;47.792;10.616;2023-07-29T10:01:24;27.10;99.90
19561;DHT22;9927;47.792;10.616;2023-07-29T10:03:52;27.20;99.90
19561;DHT22;9927;47.792;10.616;2023-07-29T10:06:20;27.20;99.90
19561;DHT22;9927;47.792;10.616;2023-07-29T10:08:49;27.40;99.90
19561;DHT22;9927;47.792;10.616;2023-07-29T10:11:17;27.20;99.90
19561;DHT22;9927;47.792;10.616;2023-07-29T10:13:48;27.00;99.90
19561;DHT22;9927;47.792;10.616;2023-07-29T10:16:36;26.90;99.90
19561;DHT22;9927;47.792;10.616;2023-07-29T10:19:04;26.70;99.90
19561;DHT22;9927;47.792;10.616;2023-07-29T10:21:33;26.80;99.90
19561;DHT22;9927;47.792;10.616;2023-07-29T10:24:04;26.80;99.90
19561;DHT22;9927;47.792;10.616;2023-07-29T10:26:33;26.60;99.90
19561;DHT22;9927;47.792;10.616;2023-07-29T10:29:04;26.70;99.90
19561;DHT22;9927;47.792;10.616;2023-07-29T10:31:35;26.90;99.90
19561;DHT22;9927;47.792;10.616;2023-07-29T10:34:04;27.10;99.90
19561;DHT22;9927;47.792;10.616;2023-07-29T10:36:31;27.30;99.90
19561;DHT22;9927;47.792;10.616;2023-07-29T10:39:01;27.10;99.90
19561;DHT22;9927;47.792;10.616;2023-07-29T10:42:00;27.00;99.90
19561;DHT22;9927;47.792;10.616;2023-07-29T10:47:26;27.00;99.90
19561;DHT22;9927;47.792;10.616;2023-07-29T10:49:58;27.20;99.90
19561;DHT22;9927;47.792;10.616;2023-07-29T10:54:55;27.10;99.90
19561;DHT22;9927;47.792;10.616;2023-07-29T10:57:31;27.10;99.90
19561;DHT22;9927;47.792;10.616;2023-07-29T11:00:00;27.10;99.90
19561;DHT22;9927;47.792;10.616;2023-07-29T11:02:35;27.10;99.90
19561;DHT22;9927;47.792;10.616;2023-07-29T11:05:17;27.00;99.90
19561;DHT22;9927;47.792;10.616;2023-07-29T11:07:46;27.10;99.90
19561;DHT22;9927;47.792;10.616;2023-07-29T11:10:15;27.10;99.90
19561;DHT22;9927;47.792;10.616;2023-07-29T11:12:50;26.90;99.90
19561;DHT22;9927;47.792;10.616;2023-07-29T11:20:14;26.90;99.90
19561;DHT22;9927;47.792;10.616;2023-07-29T11:22:42;27.00;99.90
19561;DHT22;9927;47.792;10.616;2023-07-29T11:25:12;27.10;99.90
19561;DHT22;9927;47.792;10.616;2023-07-29T11:27:40;27.10;99.90
19561;DHT22;9927;47.792;10.616;2023-07-29T11:30:10;27.20;99.90
19561;DHT22;9927;47.792;10.616;2023-07-29T11:32:39;27.20;99.90
19561;DHT22;9927;47.792;10.616;2023-07-29T11:35:14;27.20;99.90
19561;DHT22;9927;47.792;10.616;2023-07-29T11:37:46;27.20;99.90
19561;DHT22;9927;47.792;10.616;2023-07-29T11:40:21;27.40;99.90
19561;DHT22;9927;47.792;10.616;2023-07-29T11:42:51;27.50;99.90
19561;DHT22;9927;47.792;10.616;2023-07-29T11:45:20;27.30;99.90
19561;DHT22;9927;47.792;10.616;2023-07-29T11:47:50;27.20;99.90
19561;DHT22;9927;47.792;10.616;2023-07-29T11:50:17;27.40;99.90
19561;DHT22;9927;47.792;10.616;2023-07-29T11:52:46;27.40;99.70
19561;DHT22;9927;47.792;10.616;2023-07-29T11:55:14;27.20;99.90
19561;DHT22;9927;47.792;10.616;2023-07-29T11:57:43;27.00;99.90
19561;DHT22;9927;47.792;10.616;2023-07-29T12:00:11;26.80;99.90
19561;DHT22;9927;47.792;10.616;2023-07-29T12:02:42;26.80;99.90
19561;DHT22;9927;47.792;10.616;2023-07-29T12:05:13;26.80;99.90
19561;DHT22;9927;47.792;10.616;2023-07-29T12:07:42;26.60;99.90
19561;DHT22;9927;47.792;10.616;2023-07-29T12:10:10;26.60;99.90
19561;DHT22;9927;47.792;10.616;2023-07-29T12:12:50;26.80;99.90
19561;DHT22;9927;47.792;10.616;2023-07-29T12:15:25;27.10;99.70
19561;DHT22;9927;47.792;10.616;2023-07-29T12:17:54;27.20;99.90
19561;DHT22;9927;47.792;10.616;2023-07-29T12:20:25;27.20;99.90
19561;DHT22;9927;47.792;10.616;2023-07-29T12:22:56;27.10;99.90
19561;DHT22;9927;47.792;10.616;2023-07-29T12:25:25;27.20;99.90
19561;DHT22;9927;47.792;10.616;2023-07-29T12:27:52;27.20;99.60
19561;DHT22;9927;47.792;10.616;2023-07-29T12:30:21;27.30;99.90
19561;DHT22;9927;47.792;10.616;2023-07-29T12:32:49;27.30;99.90
19561;DHT22;9927;47.792;10.616;2023-07-29T12:35:16;27.30;99.90
19561;DHT22;9927;47.792;10.616;2023-07-29T12:37:44;27.20;99.30
19561;DHT22;9927;47.792;10.616;2023-07-29T12:40:24;27.20;99.90
19561;DHT22;9927;47.792;10.616;2023-07-29T12:42:52;27.20;99.90
19561;DHT22;9927;47.792;10.616;2023-07-29T12:45:20;27.20;99.90
19561;DHT22;9927;47.792;10.616;2023-07-29T12:47:50;27.20;99.20
19561;DHT22;9927;47.792;10.616;2023-07-29T12:50:17;27.20;99.10
19561;DHT22;9927;47.792;10.616;2023-07-29T12:52:45;27.30;99.70
19561;DHT22;9927;47.792;10.616;2023-07-29T12:55:12;27.30;99.40
19561;DHT22;9927;47.792;10.616;2023-07-29T12:57:43;27.40;99.90
19561;DHT22;9927;47.792;10.616;2023-07-29T13:00:11;27.60;99.90
19561;DHT22;9927;47.792;10.616;2023-07-29T13:02:38;27.50;99.30
19561;DHT22;9927;47.792;10.616;2023-07-29T13:05:08;27.10;99.30
19561;DHT22;9927;47.792;10.616;2023-07-29T13:07:36;27.10;99.10
19561;DHT22;9927;47.792;10.616;2023-07-29T13:10:03;27.40;97.80
19561;DHT22;9927;47.792;10.616;2023-07-29T13:12:31;27.40;98.20
19561;DHT22;9927;47.792;10.616;2023-07-29T13:14:59;27.40;99.20
19561;DHT22;9927;47.792;10.616;2023-07-29T13:17:26;27.60;99.90
19561;DHT22;9927;47.792;10.616;2023-07-29T13:19:53;27.90;99.90
19561;DHT22;9927;47.792;10.616;2023-07-29T13:22:20;28.00;99.90
19561;DHT22;9927;47.792;10.616;2023-07-29T13:24:48;28.00;99.70
19561;DHT22;9927;47.792;10.616;2023-07-29T13:27:15;27.70;99.10
19561;DHT22;9927;47.792;10.616;2023-07-29T13:29:42;27.30;99.10
19561;DHT22;9927;47.792;10.616;2023-07-29T13:32:10;27.10;99.60
19561;DHT22;9927;47.792;10.616;2023-07-29T13:34:38;27.00;99.90
19561;DHT22;9927;47.792;10.616;2023-07-29T13:37:07;26.70;99.90
19561;DHT22;9927;47.792;10.616;2023-07-29T13:39:34;26.40;99.90
19561;DHT22;9927;47.792;10.616;2023-07-29T13:42:01;26.30;99.90
19561;DHT22;9927;47.792;10.616;2023-07-29T13:44:29;26.10;99.90
19561;DHT22;9927;47.792;10.616;2023-07-29T13:46:56;25.90;99.90
19561;DHT22;9927;47.792;10.616;2023-07-29T13:49:23;25.90;99.90
19561;DHT22;9927;47.792;10.616;2023-07-29T13:51:50;25.70;99.90
19561;DHT22;9927;47.792;10.616;2023-07-29T13:54:18;25.60;99.90
19561;DHT22;9927;47.792;10.616;2023-07-29T13:56:45;25.60;99.90
19561;DHT22;9927;47.792;10.616;2023-07-29T13:59:12;25.70;99.90
19561;DHT22;9927;47.792;10.616;2023-07-29T14:01:39;25.50;99.90
19561;DHT22;9927;47.792;10.616;2023-07-29T14:04:07;25.40;99.90
19561;DHT22;9927;47.792;10.616;2023-07-29T14:06:34;25.50;99.90
19561;DHT22;9927;47.792;10.616;2023-07-29T14:09:13;25.40;99.90
19561;DHT22;9927;47.792;10.616;2023-07-29T14:11:40;25.30;99.90
19561;DHT22;9927;47.792;10.616;2023-07-29T14:14:08;25.20;99.90
19561;DHT22;9927;47.792;10.616;2023-07-29T14:16:36;25.10;99.90
19561;DHT22;9927;47.792;10.616;2023-07-29T14:19:03;25.10;99.90
19561;DHT22;9927;47.792;10.616;2023-07-29T14:23:58;25.00;99.90
19561;DHT22;9927;47.792;10.616;2023-07-29T14:26:26;25.00;99.90
19561;DHT22;9927;47.792;10.616;2023-07-29T14:28:54;24.90;99.90
19561;DHT22;9927;47.792;10.616;2023-07-29T14:31:21;24.80;99.90
19561;DHT22;9927;47.792;10.616;2023-07-29T14:33:49;24.70;99.90
19561;DHT22;9927;47.792;10.616;2023-07-29T14:36:16;24.70;99.90
19561;DHT22;9927;47.792;10.616;2023-07-29T14:38:44;24.70;99.90
19561;DHT22;9927;47.792;10.616;2023-07-29T14:41:11;24.70;99.90
19561;DHT22;9927;47.792;10.616;2023-07-29T14:43:38;24.70;99.90
19561;DHT22;9927;47.792;10.616;2023-07-29T14:46:05;24.70;99.90
19561;DHT22;9927;47.792;10.616;2023-07-29T14:48:33;24.90;99.90
19561;DHT22;9927;47.792;10.616;2023-07-29T14:51:00;24.80;99.90
19561;DHT22;9927;47.792;10.616;2023-07-29T14:53:28;24.70;99.90
19561;DHT22;9927;47.792;10.616;2023-07-29T14:55:55;24.70;99.90
19561;DHT22;9927;47.792;10.616;2023-07-29T14:58:22;24.70;99.90
19561;DHT22;9927;47.792;10.616;2023-07-29T15:00:52;24.70;99.90
19561;DHT22;9927;47.792;10.616;2023-07-29T15:03:19;24.60;99.90
19561;DHT22;9927;47.792;10.616;2023-07-29T15:05:47;24.40;99.90
19561;DHT22;9927;47.792;10.616;2023-07-29T15:08:14;24.10;99.90
19561;DHT22;9927;47.792;10.616;2023-07-29T15:10:45;24.00;99.90
19561;DHT22;9927;47.792;10.616;2023-07-29T15:13:13;23.90;99.90
19561;DHT22;9927;47.792;10.616;2023-07-29T15:15:42;23.70;99.90
19561;DHT22;9927;47.792;10.616;2023-07-29T15:18:10;23.60;99.90
19561;DHT22;9927;47.792;10.616;2023-07-29T15:20:37;23.40;99.90
19561;DHT22;9927;47.792;10.616;2023-07-29T15:23:04;23.10;99.90
19561;DHT22;9927;47.792;10.616;2023-07-29T15:25:31;22.70;99.90
19561;DHT22;9927;47.792;10.616;2023-07-29T15:27:59;22.30;99.90
19561;DHT22;9927;47.792;10.616;2023-07-29T15:30:26;22.00;99.90
19561;DHT22;9927;47.792;10.616;2023-07-29T15:32:53;21.90;99.90
19561;DHT22;9927;47.792;10.616;2023-07-29T15:35:22;21.90;99.90
19561;DHT22;9927;47.792;10.616;2023-07-29T15:37:49;21.80;99.90
19561;DHT22;9927;47.792;10.616;2023-07-29T15:40:17;21.50;99.90
19561;DHT22;9927;47.792;10.616;2023-07-29T15:42:44;21.40;99.90
19561;DHT22;9927;47.792;10.616;2023-07-29T15:45:11;21.40;99.90
19561;DHT22;9927;47.792;10.616;2023-07-29T15:47:39;21.40;99.90
19561;DHT22;9927;47.792;10.616;2023-07-29T15:50:06;21.30;99.90
19561;DHT22;9927;47.792;10.616;2023-07-29T15:52:34;21.20;99.90
19561;DHT22;9927;47.792;10.616;2023-07-29T15:55:01;21.20;99.90